Time;durP1;ratioP1;P1;durP2;ratioP2;P2;SDS_P1;SDS_P2;PMS_P1;PMS_P2;Temp;Humidity;BMP_temperature;BMP_pressure;BME280_temperature;BME280_humidity;BME280_pressure;Samples;Min_cycle;Max_cycle;Signal;HPM_P1;HPM_P2
2020/12/11 00:00:27;;;;;;;243.93;30.80;;;1.20;96.30;;;;;;4992843;28;20459;-76
2020/12/11 00:02:53;;;;;;;306.33;31.10;;;1.20;96.30;;;;;;4992205;28;20823;-76
2020/12/11 00:05:18;;;;;;;311.93;32.57;;;1.20;96.30;;;;;;4992822;28;20213;-76
2020/12/11 00:07:44;;;;;;;285.80;33.47;;;1.30;96.30;;;;;;4992689;28;20201;-76
2020/12/11 00:10:11;;;;;;;202.53;31.00;;;1.30;96.30;;;;;;4992763;28;20173;-76
2020/12/11 00:12:38;;;;;;;184.77;31.10;;;1.20;96.30;;;;;;4990881;28;20542;-76
2020/12/11 00:15:09;;;;;;;113.43;28.90;;;1.20;96.30;;;;;;4992672;28;20413;-76
2020/12/11 00:17:35;;;;;;;133.50;29.60;;;1.20;96.30;;;;;;4992438;28;20547;-76
2020/12/11 00:20:03;;;;;;;118.80;33.47;;;1.20;96.30;;;;;;4992596;28;20460;-77
2020/12/11 00:22:28;;;;;;;110.30;31.57;;;1.20;96.30;;;;;;4991972;28;20475;-76
2020/12/11 00:24:54;;;;;;;162.00;29.80;;;1.20;96.30;;;;;;4992732;28;20888;-76
2020/12/11 00:27:20;;;;;;;166.00;30.43;;;1.30;96.30;;;;;;4992526;28;20194;-77
2020/12/11 00:29:45;;;;;;;163.17;28.90;;;1.30;96.30;;;;;;4991602;28;20208;-76
2020/12/11 00:32:11;;;;;;;209.27;28.07;;;1.30;96.30;;;;;;4991916;28;20174;-76
2020/12/11 00:34:36;;;;;;;250.90;29.40;;;1.30;96.30;;;;;;4992253;28;20188;-76
2020/12/11 00:37:04;;;;;;;208.53;30.97;;;1.30;96.30;;;;;;4992410;28;20727;-76
2020/12/11 00:39:29;;;;;;;216.43;33.40;;;1.30;96.30;;;;;;4992421;28;20646;-76
2020/12/11 00:41:55;;;;;;;155.73;31.70;;;1.30;96.30;;;;;;4974900;28;20470;-76
2020/12/11 00:44:21;;;;;;;171.00;30.30;;;1.20;96.30;;;;;;4974149;28;20537;-76
2020/12/11 00:46:46;;;;;;;193.37;31.60;;;1.30;96.30;;;;;;4976906;28;20167;-76
2020/12/11 00:49:12;;;;;;;128.23;29.70;;;1.30;96.30;;;;;;4976619;28;20416;-76
2020/12/11 00:51:37;;;;;;;80.30;31.77;;;1.30;96.30;;;;;;4976170;28;20177;-76
2020/12/11 00:54:03;;;;;;;74.70;29.67;;;1.30;96.30;;;;;;4976550;28;20205;-76
2020/12/11 00:56:28;;;;;;;74.50;29.80;;;1.30;96.30;;;;;;4976511;28;20217;-76
2020/12/11 00:58:54;;;;;;;66.97;28.83;;;1.30;96.30;;;;;;4976491;28;20194;-76
2020/12/11 05:01:00;;;;;;;27.27;15.23;;;1.60;96.30;;;;;;5744837;23;20520;-76
2020/12/11 05:03:30;;;;;;;25.80;14.57;;;1.60;96.30;;;;;;4995113;28;20520;-76
2020/12/11 05:05:55;;;;;;;34.07;18.00;;;1.70;96.30;;;;;;4995697;28;20884;-76
2020/12/11 05:08:21;;;;;;;24.93;14.10;;;1.70;96.30;;;;;;4995900;28;20420;-76
2020/12/11 05:10:47;;;;;;;31.10;15.30;;;1.60;96.30;;;;;;4995632;28;20616;-76
2020/12/11 05:13:24;;;;;;;25.07;14.27;;;1.70;96.30;;;;;;4995528;28;20178;-76
2020/12/11 05:16:08;;;;;;;24.87;13.20;;;1.60;96.30;;;;;;4994167;28;20421;-76
2020/12/11 05:18:35;;;;;;;21.73;13.60;;;1.50;96.30;;;;;;4994425;28;20396;-76
2020/12/11 05:21:21;;;;;;;18.90;11.50;;;1.50;96.30;;;;;;4995338;28;20559;-76
2020/12/11 05:23:57;;;;;;;20.87;12.00;;;1.60;96.30;;;;;;4994924;28;20420;-76
2020/12/11 05:26:22;;;;;;;19.70;11.37;;;1.60;96.30;;;;;;4996047;28;20896;-76
2020/12/11 05:28:49;;;;;;;17.63;10.53;;;1.60;96.30;;;;;;4995394;28;20468;-76
2020/12/11 05:31:14;;;;;;;17.93;10.93;;;1.50;96.30;;;;;;4994700;28;20581;-76
2020/12/11 05:34:07;;;;;;;18.70;11.20;;;1.50;96.30;;;;;;4993151;28;20428;-76
2020/12/11 05:36:52;;;;;;;14.50;9.43;;;1.50;96.30;;;;;;4995481;28;20811;-76
2020/12/11 05:39:32;;;;;;;14.63;10.87;;;1.60;96.30;;;;;;4995368;28;20412;-77
2020/12/11 05:42:03;;;;;;;14.13;10.03;;;1.60;96.30;;;;;;4994324;28;20456;-76
2020/12/11 05:44:30;;;;;;;17.50;11.77;;;1.60;96.30;;;;;;4995134;28;20397;-78
2020/12/11 05:46:58;;;;;;;15.57;9.53;;;1.60;96.30;;;;;;4995152;28;20491;-77
2020/12/11 05:49:30;;;;;;;15.27;9.90;;;1.50;96.30;;;;;;4995099;28;20419;-76
2020/12/11 05:52:11;;;;;;;21.77;12.87;;;1.50;96.30;;;;;;4993810;28;20432;-76
2020/12/11 05:54:43;;;;;;;14.73;9.67;;;1.60;96.30;;;;;;4981344;28;20425;-77
2020/12/11 05:57:09;;;;;;;14.10;10.00;;;1.60;96.30;;;;;;4975581;28;20417;-77
2020/12/11 05:59:36;;;;;;;16.83;9.73;;;1.60;96.30;;;;;;4979597;28;20833;-77
2020/12/11 06:02:02;;;;;;;17.53;11.60;;;1.60;96.30;;;;;;4992313;28;21056;-76
2020/12/11 06:04:28;;;;;;;9.90;8.63;;;1.60;96.30;;;;;;4994729;28;20485;-76
2020/12/11 06:06:57;;;;;;;13.67;9.33;;;1.60;96.30;;;;;;4994792;28;20410;-76
2020/12/11 06:09:50;;;;;;;13.30;8.93;;;1.60;96.30;;;;;;4993094;28;20428;-76
2020/12/11 06:12:26;;;;;;;8.53;7.10;;;1.60;96.30;;;;;;4994089;28;20440;-76
2020/12/11 06:15:17;;;;;;;26.50;15.80;;;1.50;96.30;;;;;;4989513;28;20500;-76
2020/12/11 06:18:00;;;;;;;12.97;8.47;;;1.50;96.30;;;;;;4980575;28;20447;-76
2020/12/11 06:20:27;;;;;;;13.47;8.27;;;1.50;96.30;;;;;;4992349;28;20792;-76
2020/12/11 06:22:53;;;;;;;13.80;9.37;;;1.50;96.30;;;;;;5008221;28;20527;-76
2020/12/11 06:25:26;;;;;;;18.00;11.40;;;1.50;96.30;;;;;;5010149;28;20405;-76
2020/12/11 06:27:53;;;;;;;17.00;10.47;;;1.50;96.30;;;;;;4991213;28;20181;-76
2020/12/11 06:30:26;;;;;;;18.67;12.50;;;1.40;96.30;;;;;;4993071;28;20405;-76
2020/12/11 06:32:51;;;;;;;20.20;10.90;;;1.50;96.30;;;;;;4992940;28;20412;-76
2020/12/11 06:35:17;;;;;;;25.23;12.20;;;1.50;96.30;;;;;;4994419;28;20745;-76
2020/12/11 06:37:43;;;;;;;17.50;10.03;;;1.40;96.30;;;;;;4976585;28;20182;-76
2020/12/11 06:40:08;;;;;;;17.87;10.30;;;1.30;96.30;;;;;;4975698;28;20181;-76
2020/12/11 06:42:38;;;;;;;19.20;12.17;;;1.30;96.30;;;;;;4987074;28;20260;-76
2020/12/11 06:45:25;;;;;;;19.63;10.67;;;1.30;96.30;;;;;;4993498;28;20325;-76
2020/12/11 06:47:56;;;;;;;16.87;9.50;;;1.30;96.30;;;;;;4993675;28;20464;-75
2020/12/11 06:50:25;;;;;;;19.30;11.63;;;1.20;96.30;;;;;;4992537;28;20508;-75
2020/12/11 06:52:50;;;;;;;25.37;11.80;;;1.20;96.30;;;;;;4990785;28;20432;-75
2020/12/11 06:55:16;;;;;;;23.00;14.67;;;1.20;96.30;;;;;;4989484;28;20420;-76
2020/12/11 06:57:43;;;;;;;20.83;11.63;;;1.10;96.30;;;;;;4992026;28;20173;-76
2020/12/11 07:00:30;;;;;;;24.77;14.93;;;1.10;96.30;;;;;;4993022;28;20185;-76
2020/12/11 07:03:15;;;;;;;25.37;12.07;;;1.10;96.30;;;;;;4991415;28;20464;-75
2020/12/11 07:05:41;;;;;;;19.47;11.20;;;1.10;96.30;;;;;;4992896;28;20982;-76
2020/12/11 07:08:14;;;;;;;23.03;11.30;;;1.10;96.30;;;;;;4990836;28;20416;-75
2020/12/11 07:10:41;;;;;;;26.03;14.50;;;1.10;96.30;;;;;;4980649;28;20194;-75
2020/12/11 07:13:10;;;;;;;27.30;12.90;;;1.10;96.30;;;;;;4991370;28;20499;-75
2020/12/11 07:15:37;;;;;;;19.97;11.40;;;1.10;96.30;;;;;;4991650;28;20789;-75
2020/12/11 07:18:03;;;;;;;20.27;12.20;;;1.10;96.30;;;;;;4986452;28;20943;-75
2020/12/11 07:20:29;;;;;;;20.30;11.10;;;1.10;96.30;;;;;;4992515;28;20872;-75
2020/12/11 07:22:59;;;;;;;25.13;13.57;;;1.10;96.30;;;;;;4991941;28;20552;-75
2020/12/11 07:25:26;;;;;;;21.30;12.30;;;1.10;96.30;;;;;;4990453;28;20170;-75
2020/12/11 07:28:02;;;;;;;17.47;10.57;;;1.00;96.30;;;;;;4992405;28;20417;-76
2020/12/11 07:30:28;;;;;;;20.40;11.30;;;1.10;96.30;;;;;;4982924;28;20475;-76
2020/12/11 07:32:55;;;;;;;18.87;12.73;;;1.10;96.30;;;;;;4992259;28;20420;-75
2020/12/11 07:35:21;;;;;;;18.50;10.80;;;1.10;96.30;;;;;;4993087;28;20272;-75
2020/12/11 07:37:54;;;;;;;19.00;9.60;;;1.10;96.30;;;;;;4993018;28;20439;-75
2020/12/11 07:40:21;;;;;;;13.77;8.73;;;1.10;96.30;;;;;;4992886;28;20420;-75
2020/12/11 07:42:48;;;;;;;13.60;7.77;;;1.10;96.30;;;;;;4992646;28;20456;-75
2020/12/11 07:45:28;;;;;;;13.43;9.53;;;1.10;96.30;;;;;;4992994;28;20440;-75
2020/12/11 07:47:55;;;;;;;14.87;9.10;;;1.10;96.30;;;;;;4991502;28;20416;-75
2020/12/11 07:50:26;;;;;;;15.10;9.90;;;1.00;96.30;;;;;;4992897;28;20420;-75
2020/12/11 07:52:53;;;;;;;13.60;9.60;;;1.00;96.30;;;;;;4992325;28;20421;-74
2020/12/11 07:55:20;;;;;;;11.33;8.43;;;1.10;96.30;;;;;;4992917;28;20904;-75
2020/12/11 07:57:53;;;;;;;13.37;9.37;;;1.00;96.30;;;;;;4992905;28;20404;-75
2020/12/11 08:00:19;;;;;;;13.93;7.90;;;1.10;96.30;;;;;;4992791;28;20393;-75
2020/12/11 08:02:50;;;;;;;13.10;8.70;;;1.10;96.30;;;;;;4992538;28;20495;-75
2020/12/11 08:05:15;;;;;;;9.90;6.50;;;1.10;96.30;;;;;;4992857;28;20397;-75
2020/12/11 08:07:41;;;;;;;11.63;7.70;;;1.20;96.30;;;;;;4992764;28;20417;-75
2020/12/11 08:10:11;;;;;;;8.87;6.23;;;1.20;96.30;;;;;;4992464;28;20240;-75
2020/12/11 08:12:39;;;;;;;8.73;5.97;;;1.20;96.30;;;;;;4991154;28;20649;-74
2020/12/11 08:15:05;;;;;;;7.20;4.93;;;1.30;96.30;;;;;;4992609;28;20841;-75
2020/12/11 08:17:32;;;;;;;10.90;8.17;;;1.30;96.30;;;;;;4992734;28;20417;-75
2020/12/11 08:19:59;;;;;;;8.90;5.60;;;1.30;96.30;;;;;;4991308;28;20497;-75
2020/12/11 08:22:46;;;;;;;9.00;6.57;;;1.30;96.30;;;;;;4990002;28;20555;-74
2020/12/11 08:25:18;;;;;;;11.10;7.30;;;1.40;96.30;;;;;;4990879;28;20417;-74
2020/12/11 08:27:43;;;;;;;8.10;5.87;;;1.40;96.30;;;;;;4992492;28;20475;-75
2020/12/11 08:30:14;;;;;;;7.77;6.00;;;1.40;96.30;;;;;;4991328;28;20409;-74
2020/12/11 08:32:41;;;;;;;9.30;6.30;;;1.50;96.30;;;;;;4991051;28;20600;-74
2020/12/11 08:35:12;;;;;;;9.37;6.57;;;1.50;96.30;;;;;;4992375;28;20474;-75
2020/12/11 08:37:50;;;;;;;8.83;6.17;;;1.60;96.30;;;;;;4991089;28;20436;-74
2020/12/11 08:40:15;;;;;;;7.23;5.50;;;1.60;96.30;;;;;;4988758;28;20781;-75
2020/12/11 08:42:46;;;;;;;5.37;4.60;;;1.60;96.30;;;;;;4972690;28;20449;-75
2020/12/11 08:45:28;;;;;;;8.17;5.93;;;1.60;96.30;;;;;;4973080;28;20182;-74
2020/12/11 08:48:11;;;;;;;11.47;7.23;;;1.60;96.30;;;;;;4972874;28;20437;-74
2020/12/11 08:50:54;;;;;;;9.50;6.43;;;1.70;96.30;;;;;;4972894;28;20429;-74
2020/12/11 08:53:22;;;;;;;9.50;6.07;;;1.70;96.30;;;;;;4990360;28;20412;-74
2020/12/11 08:55:48;;;;;;;9.20;6.50;;;1.80;96.30;;;;;;4991827;28;21099;-75
2020/12/11 08:58:13;;;;;;;9.63;6.70;;;1.80;96.30;;;;;;4992213;28;20516;-75
2020/12/11 09:00:39;;;;;;;8.50;5.57;;;1.80;96.30;;;;;;4992158;28;20547;-75
2020/12/11 09:03:04;;;;;;;7.00;5.90;;;1.80;96.30;;;;;;4990712;28;20225;-74
2020/12/11 09:05:30;;;;;;;10.60;7.13;;;1.90;96.30;;;;;;4993440;28;20178;-75
2020/12/11 09:07:56;;;;;;;9.17;5.40;;;1.90;96.30;;;;;;4995691;28;20206;-75
2020/12/11 09:10:22;;;;;;;10.50;6.30;;;1.90;96.30;;;;;;4995763;28;20634;-74
2020/12/11 09:12:50;;;;;;;8.13;5.87;;;1.90;96.30;;;;;;4994203;28;20566;-74
2020/12/11 09:15:17;;;;;;;8.23;6.47;;;2.00;96.30;;;;;;4995552;28;20420;-74
2020/12/11 09:17:43;;;;;;;7.60;6.33;;;2.00;96.30;;;;;;4995565;28;20456;-74
2020/12/11 09:20:08;;;;;;;10.10;6.80;;;2.00;96.30;;;;;;4995354;28;20445;-74
2020/12/11 09:22:34;;;;;;;9.23;6.17;;;2.00;96.30;;;;;;4994806;28;20201;-74
2020/12/11 09:25:00;;;;;;;10.83;7.63;;;2.00;96.30;;;;;;4995440;28;20193;-74
2020/12/11 09:27:25;;;;;;;14.37;9.50;;;1.90;96.30;;;;;;4995366;28;20189;-74
2020/12/11 09:29:53;;;;;;;16.60;10.90;;;1.90;96.30;;;;;;4995298;28;20452;-74
2020/12/11 09:35:15;;;;;;;16.47;10.80;;;1.90;96.30;;;;;;4994804;28;20495;-74
2020/12/11 09:37:40;;;;;;;14.87;9.37;;;2.00;96.30;;;;;;4995210;28;20980;-74
2020/12/11 09:40:06;;;;;;;14.30;9.30;;;1.90;96.30;;;;;;4995207;28;20420;-74
2020/12/11 09:42:51;;;;;;;12.03;8.93;;;1.80;96.30;;;;;;4994752;28;20553;-74
2020/12/11 09:45:31;;;;;;;17.03;11.03;;;1.80;96.30;;;;;;4993886;28;20181;-74
2020/12/11 09:48:06;;;;;;;14.53;9.40;;;1.80;96.30;;;;;;4995115;28;20771;-74
2020/12/11 09:53:05;;;;;;;10.23;8.13;;;1.80;96.30;;;;;;4994589;28;20421;-75
2020/12/11 09:55:44;;;;;;;12.00;8.70;;;1.80;96.30;;;;;;4993869;28;20184;-75
2020/12/11 09:58:09;;;;;;;14.77;8.40;;;1.80;96.30;;;;;;4994924;28;20440;-74
2020/12/11 10:00:35;;;;;;;14.97;9.80;;;1.70;96.30;;;;;;4994655;28;20940;-74
2020/12/11 10:03:07;;;;;;;10.50;8.57;;;1.70;96.30;;;;;;4994596;28;20197;-74
2020/12/11 10:05:32;;;;;;;12.60;8.50;;;1.70;96.30;;;;;;4993590;28;20779;-74
2020/12/11 10:07:58;;;;;;;16.10;10.17;;;1.80;96.30;;;;;;4994595;28;20421;-74
2020/12/11 10:10:24;;;;;;;11.33;8.57;;;1.80;96.30;;;;;;4994564;28;20174;-74
2020/12/11 10:12:50;;;;;;;11.17;8.60;;;1.70;96.30;;;;;;4994710;28;20185;-77
2020/12/11 10:15:20;;;;;;;10.07;7.30;;;1.70;96.30;;;;;;4995818;28;20170;-75
2020/12/11 10:17:46;;;;;;;13.97;9.33;;;1.70;96.30;;;;;;4994367;28;20784;-74
2020/12/11 10:20:18;;;;;;;14.27;10.17;;;1.70;96.30;;;;;;4994448;28;20417;-74
2020/12/11 10:22:44;;;;;;;10.70;8.10;;;1.70;96.30;;;;;;4992862;28;20459;-75
2020/12/11 10:25:10;;;;;;;12.10;10.20;;;1.80;96.30;;;;;;4994252;28;20451;-75
2020/12/11 10:27:36;;;;;;;18.53;11.03;;;1.70;96.30;;;;;;4993128;28;20452;-74
2020/12/11 10:30:02;;;;;;;10.10;7.17;;;1.70;96.30;;;;;;4995176;28;20174;-75
2020/12/11 10:32:28;;;;;;;16.50;9.93;;;1.70;96.30;;;;;;4992618;28;20862;-74
2020/12/11 10:34:53;;;;;;;14.47;9.33;;;1.70;96.30;;;;;;4994183;28;20220;-74
2020/12/11 10:37:19;;;;;;;13.50;10.17;;;1.70;96.30;;;;;;4994130;28;20514;-75
2020/12/11 10:39:44;;;;;;;14.10;10.43;;;1.70;96.30;;;;;;4994551;28;20178;-74
2020/12/11 10:42:10;;;;;;;13.77;9.73;;;1.70;96.30;;;;;;4993692;28;20210;-74
2020/12/11 10:44:35;;;;;;;10.40;7.77;;;1.70;96.30;;;;;;4994070;28;20177;-74
2020/12/11 10:47:01;;;;;;;10.53;7.87;;;1.80;96.30;;;;;;4994117;28;20663;-74
2020/12/11 10:49:27;;;;;;;11.43;7.87;;;1.70;96.30;;;;;;4993918;28;20180;-75
2020/12/11 10:51:53;;;;;;;11.63;8.87;;;1.70;96.30;;;;;;4993523;28;20232;-74
2020/12/11 10:54:19;;;;;;;13.97;9.67;;;1.80;96.30;;;;;;4992584;28;20441;-75
2020/12/11 10:56:45;;;;;;;11.40;8.77;;;1.80;96.30;;;;;;4976898;28;20185;-75
2020/12/11 10:59:12;;;;;;;11.70;8.27;;;1.80;96.30;;;;;;4974089;28;20410;-75
2020/12/11 11:01:38;;;;;;;13.00;9.13;;;1.80;96.30;;;;;;4973994;28;20497;-75
2020/12/11 11:04:04;;;;;;;12.43;9.50;;;1.90;96.30;;;;;;4974277;28;20434;-75
2020/12/11 11:06:37;;;;;;;11.03;7.60;;;1.90;96.30;;;;;;4972774;28;20170;-74
2020/12/11 11:11:40;;;;;;;10.10;8.50;;;1.80;96.30;;;;;;4974118;28;20448;-74
2020/12/11 11:14:20;;;;;;;14.00;9.80;;;1.80;96.30;;;;;;4974187;28;21082;-75
2020/12/11 11:19:33;;;;;;;13.23;10.03;;;1.70;96.30;;;;;;4987835;28;20951;-75
2020/12/11 11:22:18;;;;;;;11.87;8.80;;;1.80;96.30;;;;;;4990622;28;20468;-75
2020/12/11 11:27:36;;;;;;;13.33;8.90;;;1.70;96.30;;;;;;4990680;28;20412;-75
2020/12/11 11:30:03;;;;;;;20.97;12.33;;;1.80;96.30;;;;;;4992370;28;20412;-76
2020/12/11 11:32:28;;;;;;;13.77;9.83;;;1.70;96.30;;;;;;4988196;28;20925;-75
2020/12/11 11:34:54;;;;;;;14.30;9.50;;;1.70;96.30;;;;;;4986925;28;20425;-75
2020/12/11 11:37:21;;;;;;;16.50;9.97;;;1.80;96.30;;;;;;4988683;28;20182;-75
2020/12/11 11:39:48;;;;;;;12.90;8.53;;;1.70;96.30;;;;;;4992314;28;20185;-76
2020/12/11 11:42:13;;;;;;;16.03;11.33;;;1.80;96.30;;;;;;4980901;28;20468;-76
2020/12/11 11:47:07;;;;;;;12.20;9.07;;;1.80;96.30;;;;;;4973669;28;20177;-75
2020/12/11 11:49:38;;;;;;;13.77;9.77;;;1.90;96.30;;;;;;4973446;28;20519;-76
2020/12/11 11:54:34;;;;;;;13.47;9.43;;;2.10;96.30;;;;;;4973478;28;20508;-75
2020/12/11 11:56:59;;;;;;;14.50;9.30;;;2.20;96.30;;;;;;4972199;28;20445;-76
2020/12/11 11:59:25;;;;;;;12.90;7.67;;;2.30;96.30;;;;;;4972104;28;20508;-76
2020/12/11 12:01:54;;;;;;;12.80;7.83;;;2.40;96.30;;;;;;4972905;28;20352;-75
2020/12/11 12:04:21;;;;;;;9.80;5.50;;;2.50;96.30;;;;;;4972128;28;20178;-76
2020/12/11 12:06:47;;;;;;;8.63;6.30;;;2.50;96.30;;;;;;4972285;28;20496;-76
2020/12/11 12:09:13;;;;;;;9.40;5.90;;;2.60;96.30;;;;;;4973370;28;20931;-76
2020/12/11 12:11:38;;;;;;;10.03;6.67;;;2.70;96.30;;;;;;4972955;28;20204;-76
2020/12/11 12:14:04;;;;;;;8.40;6.13;;;2.80;96.30;;;;;;4973084;28;20185;-75
2020/12/11 12:16:30;;;;;;;3.97;3.37;;;2.80;96.30;;;;;;4973250;28;20214;-76
2020/12/11 12:18:58;;;;;;;5.53;4.10;;;2.80;96.30;;;;;;4973107;28;20198;-76
2020/12/11 12:21:40;;;;;;;5.97;4.00;;;2.90;96.30;;;;;;4971788;28;21013;-75
2020/12/11 12:27:24;;;;;;;7.83;5.00;;;2.80;96.30;;;;;;4972013;28;20394;-75
2020/12/11 12:29:41;;;;;;;7.27;5.27;;;2.70;96.30;;;;;;4973334;28;20429;-76
2020/12/11 12:32:10;;;;;;;9.10;5.70;;;2.60;96.30;;;;;;4972688;28;20433;-75
2020/12/11 12:39:50;;;;;;;13.03;7.17;;;2.60;96.30;;;;;;4972962;28;20601;-76
2020/12/11 12:45:00;;;;;;;11.20;7.60;;;2.60;96.30;;;;;;4996297;28;20411;-76
2020/12/11 12:47:25;;;;;;;9.57;7.10;;;2.50;96.30;;;;;;4996129;28;20413;-76
2020/12/11 12:49:51;;;;;;;9.10;6.77;;;2.40;96.30;;;;;;4996139;28;20184;-75
2020/12/11 12:52:16;;;;;;;7.40;5.97;;;2.50;96.30;;;;;;4994659;28;20205;-76
2020/12/11 12:54:42;;;;;;;11.23;7.60;;;2.40;96.30;;;;;;4994610;28;20279;-75
2020/12/11 12:57:21;;;;;;;8.27;6.80;;;2.40;96.30;;;;;;4995806;28;20189;-76
2020/12/11 13:05:20;;;;;;;11.00;7.33;;;2.40;96.30;;;;;;4995979;28;20176;-76
2020/12/11 13:07:38;;;;;;;9.90;7.60;;;2.40;96.30;;;;;;4997228;28;20429;-76
2020/12/11 13:10:06;;;;;;;9.83;8.20;;;2.40;96.30;;;;;;4995915;28;20451;-76
2020/12/11 13:12:31;;;;;;;10.97;8.57;;;2.40;96.30;;;;;;4990754;28;20209;-76
2020/12/11 13:14:57;;;;;;;14.93;9.63;;;2.40;96.30;;;;;;4986790;28;20464;-76
2020/12/11 13:17:23;;;;;;;7.63;5.50;;;2.40;96.30;;;;;;4995616;28;20206;-76
2020/12/11 13:19:48;;;;;;;9.77;7.30;;;2.40;96.30;;;;;;4995543;28;20592;-76
2020/12/11 13:22:33;;;;;;;9.67;7.27;;;2.40;96.30;;;;;;4995257;28;20206;-76
2020/12/11 13:27:43;;;;;;;8.60;6.50;;;2.40;96.30;;;;;;4995847;28;20399;-76
2020/12/11 13:30:09;;;;;;;8.60;6.40;;;2.50;96.30;;;;;;4994853;28;20492;-76
2020/12/11 13:32:35;;;;;;;8.50;6.40;;;2.50;96.30;;;;;;4994725;28;20207;-76
2020/12/11 13:35:00;;;;;;;12.13;7.27;;;2.50;96.30;;;;;;4995336;28;20479;-76
2020/12/11 13:37:30;;;;;;;9.93;7.37;;;2.50;96.30;;;;;;4995356;28;20185;-76
2020/12/11 13:39:57;;;;;;;10.43;7.90;;;2.50;96.30;;;;;;4994036;28;20228;-75
2020/12/11 13:42:22;;;;;;;9.53;6.70;;;2.60;96.30;;;;;;4994887;28;20458;-76
2020/12/11 13:44:48;;;;;;;9.87;5.90;;;2.60;96.30;;;;;;4995192;28;20412;-76
2020/12/11 13:47:13;;;;;;;10.10;7.37;;;2.60;96.30;;;;;;4995103;28;20174;-75
2020/12/11 13:49:39;;;;;;;9.40;7.37;;;2.60;96.30;;;;;;4993953;28;20193;-76
2020/12/11 13:52:05;;;;;;;11.03;7.50;;;2.70;96.30;;;;;;4994099;28;20281;-76
2020/12/11 13:54:30;;;;;;;10.80;7.73;;;2.60;96.30;;;;;;4995026;28;20177;-76
2020/12/11 13:56:56;;;;;;;9.00;7.83;;;2.70;96.30;;;;;;4994877;28;20268;-76
2020/12/11 13:59:21;;;;;;;11.90;7.73;;;2.60;96.30;;;;;;4994738;28;20247;-75
2020/12/11 14:01:47;;;;;;;11.70;9.00;;;2.60;96.30;;;;;;4992934;28;20213;-75
2020/12/11 14:04:14;;;;;;;9.77;7.37;;;2.60;96.30;;;;;;4994852;28;20188;-75
2020/12/11 14:06:39;;;;;;;14.53;8.47;;;2.60;96.30;;;;;;4993386;28;20413;-75
2020/12/11 14:09:05;;;;;;;10.23;6.80;;;2.60;96.30;;;;;;4994635;28;20427;-75
2020/12/11 14:11:31;;;;;;;13.10;9.53;;;2.60;96.30;;;;;;4994149;28;20201;-75
2020/12/11 14:13:56;;;;;;;18.00;10.13;;;2.50;96.30;;;;;;4994101;28;20173;-75
2020/12/11 14:21:59;;;;;;;10.80;7.27;;;2.50;96.30;;;;;;4994528;28;20892;-74
2020/12/11 14:24:25;;;;;;;16.50;10.40;;;2.50;96.30;;;;;;4994288;28;20408;-76
2020/12/11 14:26:51;;;;;;;15.07;10.90;;;2.40;96.30;;;;;;4994283;28;20488;-75
2020/12/11 14:29:18;;;;;;;16.50;10.53;;;2.40;96.30;;;;;;4994082;28;20212;-74
2020/12/11 14:31:44;;;;;;;14.00;7.90;;;2.40;96.30;;;;;;4993494;28;20451;-75
2020/12/11 14:34:09;;;;;;;18.10;12.37;;;2.30;96.30;;;;;;4994017;28;20503;-75
2020/12/11 14:36:35;;;;;;;16.53;11.60;;;2.30;96.30;;;;;;4994162;28;20182;-74
2020/12/11 14:39:05;;;;;;;15.03;10.07;;;2.30;96.30;;;;;;4990884;28;20204;-75
2020/12/11 14:41:31;;;;;;;17.53;13.10;;;2.30;96.30;;;;;;4983120;28;20213;-75
2020/12/11 14:43:56;;;;;;;16.10;10.87;;;2.30;96.30;;;;;;4993373;28;20416;-75
2020/12/11 14:46:24;;;;;;;16.50;11.70;;;2.30;96.30;;;;;;4994008;28;20209;-74
2020/12/11 14:48:51;;;;;;;16.53;11.20;;;2.20;96.30;;;;;;4991876;28;20178;-75
2020/12/11 14:51:16;;;;;;;28.23;17.90;;;2.20;96.30;;;;;;4993498;28;20498;-75
2020/12/11 14:53:42;;;;;;;15.43;10.50;;;2.20;96.30;;;;;;4997600;23;20500;-75
2020/12/11 14:56:08;;;;;;;20.80;12.13;;;2.20;96.30;;;;;;4974748;28;20260;-75
2020/12/11 14:58:33;;;;;;;17.53;11.13;;;2.20;96.30;;;;;;4973479;28;20237;-75
2020/12/11 15:00:59;;;;;;;23.20;14.43;;;2.20;96.30;;;;;;4974386;28;20493;-75
2020/12/11 15:03:24;;;;;;;22.67;13.37;;;2.20;96.30;;;;;;4973176;28;20218;-75
2020/12/11 15:05:50;;;;;;;23.53;14.40;;;2.20;96.30;;;;;;4974081;28;20198;-75
2020/12/11 15:08:15;;;;;;;26.33;12.53;;;2.20;96.30;;;;;;4974209;28;20170;-75
2020/12/11 15:10:41;;;;;;;29.30;17.20;;;2.20;96.30;;;;;;4974171;28;20522;-75
2020/12/11 15:13:08;;;;;;;19.50;12.00;;;2.20;96.30;;;;;;4973833;28;20202;-75
2020/12/11 15:15:33;;;;;;;18.60;12.57;;;2.10;96.30;;;;;;4973915;28;20665;-75
2020/12/11 15:17:59;;;;;;;27.83;15.37;;;2.10;96.30;;;;;;4972854;28;20425;-75
2020/12/11 15:20:24;;;;;;;30.13;16.87;;;2.10;96.30;;;;;;4972848;28;20300;-75
2020/12/11 15:22:51;;;;;;;24.77;14.63;;;2.10;96.30;;;;;;4973679;28;20202;-75
2020/12/11 15:25:17;;;;;;;29.30;17.33;;;2.10;96.30;;;;;;4972710;28;20194;-75
2020/12/11 15:27:42;;;;;;;20.80;13.00;;;2.10;96.30;;;;;;4972728;28;21045;-75
2020/12/11 15:30:08;;;;;;;28.37;16.30;;;2.10;96.30;;;;;;4973884;28;20500;-75
2020/12/11 15:32:33;;;;;;;26.37;16.97;;;2.10;96.30;;;;;;4972355;28;20178;-75
2020/12/11 15:34:59;;;;;;;27.30;16.10;;;2.10;96.30;;;;;;4973625;28;20724;-75
2020/12/11 15:37:25;;;;;;;27.67;17.60;;;2.00;96.30;;;;;;4972516;28;20193;-75
2020/12/11 15:39:50;;;;;;;25.20;15.07;;;2.00;96.30;;;;;;4973776;28;20174;-75
2020/12/11 15:42:16;;;;;;;25.07;13.63;;;2.00;96.30;;;;;;4973424;28;20206;-75
2020/12/11 15:44:41;;;;;;;32.10;18.17;;;2.00;96.30;;;;;;4973624;28;20202;-75
2020/12/11 15:47:07;;;;;;;27.53;17.10;;;2.00;96.30;;;;;;4973655;28;20179;-75
2020/12/11 15:49:32;;;;;;;26.17;16.40;;;2.00;96.30;;;;;;4972443;28;20180;-75
2020/12/11 15:51:58;;;;;;;24.03;13.67;;;2.00;96.30;;;;;;4972055;28;20627;-75
2020/12/11 15:54:23;;;;;;;29.73;16.90;;;1.90;96.30;;;;;;4973452;28;20225;-75
2020/12/11 15:56:49;;;;;;;32.37;20.10;;;1.90;96.30;;;;;;4973524;28;20179;-75
2020/12/11 15:59:14;;;;;;;32.93;19.23;;;2.00;96.30;;;;;;4972252;28;20256;-75
2020/12/11 16:01:40;;;;;;;32.23;18.67;;;2.00;96.30;;;;;;4973246;28;20206;-75
2020/12/11 16:04:05;;;;;;;40.37;24.10;;;2.00;96.30;;;;;;4973491;28;20194;-75
2020/12/11 16:06:32;;;;;;;36.07;22.90;;;2.00;96.30;;;;;;4973497;28;20210;-75
2020/12/11 16:08:59;;;;;;;35.97;22.37;;;1.90;96.30;;;;;;4973321;28;20221;-75
2020/12/11 16:11:25;;;;;;;21.93;13.37;;;2.00;96.30;;;;;;4972014;28;20418;-75
2020/12/11 16:13:51;;;;;;;28.50;17.83;;;2.00;96.30;;;;;;4973168;28;20433;-75
2020/12/11 16:16:17;;;;;;;22.17;14.50;;;2.00;96.30;;;;;;4977451;28;20907;-75
2020/12/11 16:18:42;;;;;;;31.60;18.63;;;2.00;96.30;;;;;;4977384;28;20174;-75
2020/12/11 16:21:11;;;;;;;22.20;14.03;;;2.00;96.30;;;;;;4977281;28;20182;-75
2020/12/11 16:23:37;;;;;;;35.93;20.50;;;1.90;96.30;;;;;;4975780;28;20576;-75
2020/12/11 16:26:03;;;;;;;30.07;20.20;;;1.90;96.30;;;;;;4975957;28;20921;-75
2020/12/11 16:28:29;;;;;;;29.50;17.47;;;1.80;96.30;;;;;;4977138;28;20688;-75
2020/12/11 16:30:56;;;;;;;28.40;16.07;;;1.90;96.30;;;;;;4977087;28;20413;-75
2020/12/11 16:33:25;;;;;;;25.23;16.70;;;1.80;96.30;;;;;;4975558;28;20178;-75
2020/12/11 16:35:51;;;;;;;24.60;16.83;;;1.80;96.30;;;;;;4976996;28;20425;-75
2020/12/11 16:38:16;;;;;;;26.20;14.43;;;1.70;96.30;;;;;;4977022;28;20500;-75
2020/12/11 16:40:42;;;;;;;20.90;13.53;;;1.60;96.30;;;;;;4983833;28;20864;-75
2020/12/11 16:45:58;;;;;;;21.10;15.17;;;1.60;96.30;;;;;;5004984;28;20193;-75
2020/12/11 16:48:24;;;;;;;20.93;13.97;;;1.50;96.30;;;;;;4995121;28;20975;-75
2020/12/11 16:50:49;;;;;;;19.93;13.67;;;1.50;96.30;;;;;;4996189;28;20440;-75
2020/12/11 16:53:15;;;;;;;22.20;14.67;;;1.50;96.30;;;;;;4994608;28;20284;-75
2020/12/11 16:55:41;;;;;;;14.77;10.00;;;1.40;96.30;;;;;;4996130;28;20240;-75
2020/12/11 16:58:07;;;;;;;32.73;13.17;;;1.40;96.30;;;;;;4994825;28;20166;-75
2020/12/11 17:00:34;;;;;;;24.70;18.10;;;1.30;96.30;;;;;;4994927;28;20205;-75
2020/12/11 17:08:03;;;;;;;16.97;11.30;;;1.10;96.30;;;;;;4996276;28;20424;-75
2020/12/11 17:10:29;;;;;;;15.17;11.40;;;1.10;96.30;;;;;;4994750;28;20420;-75
2020/12/11 17:12:54;;;;;;;13.23;8.70;;;1.10;96.30;;;;;;4995645;28;20439;-75
2020/12/11 17:15:20;;;;;;;13.43;9.27;;;1.10;96.30;;;;;;4995841;28;20193;-75
2020/12/11 17:17:45;;;;;;;21.03;12.40;;;1.10;96.30;;;;;;4994632;28;20261;-75
2020/12/11 17:20:12;;;;;;;17.97;12.87;;;1.10;96.30;;;;;;4995560;28;20236;-75
2020/12/11 17:22:37;;;;;;;17.30;12.97;;;1.00;96.30;;;;;;4995480;28;20209;-75
2020/12/11 17:25:06;;;;;;;20.60;12.33;;;0.90;96.30;;;;;;4994077;28;20963;-75
2020/12/11 17:27:32;;;;;;;14.43;9.87;;;1.00;96.30;;;;;;4994756;28;20170;-75
2020/12/11 17:30:03;;;;;;;17.07;10.30;;;1.00;96.30;;;;;;4995337;28;20892;-75
2020/12/11 17:32:42;;;;;;;16.90;11.10;;;1.00;96.30;;;;;;4994095;28;20421;-75
2020/12/11 17:35:09;;;;;;;13.40;10.03;;;0.90;96.30;;;;;;4995449;28;20448;-75
2020/12/11 17:37:38;;;;;;;14.77;10.37;;;0.90;96.30;;;;;;4995489;28;20413;-75